sensor_id;sensor_type;location;lat;lon;timestamp;P1;durP1;ratioP1;P2;durP2;ratioP2
37065;SDS011;22981;43.080;25.550;2023-09-19T00:00:41;15.20;;;11.70;;
37065;SDS011;22981;43.080;25.550;2023-09-19T00:16:10;16.67;;;11.12;;
37065;SDS011;22981;43.080;25.550;2023-09-19T00:18:38;13.98;;;10.20;;
37065;SDS011;22981;43.080;25.550;2023-09-19T00:21:06;13.00;;;9.33;;
37065;SDS011;22981;43.080;25.550;2023-09-19T00:23:33;13.00;;;9.30;;
37065;SDS011;22981;43.080;25.550;2023-09-19T00:26:01;16.52;;;10.90;;
37065;SDS011;22981;43.080;25.550;2023-09-19T00:28:29;12.07;;;9.23;;
37065;SDS011;22981;43.080;25.550;2023-09-19T00:30:57;12.78;;;9.10;;
37065;SDS011;22981;43.080;25.550;2023-09-19T00:33:27;12.53;;;9.40;;
37065;SDS011;22981;43.080;25.550;2023-09-19T00:35:57;10.65;;;8.43;;
37065;SDS011;22981;43.080;25.550;2023-09-19T00:38:27;12.33;;;8.48;;
37065;SDS011;22981;43.080;25.550;2023-09-19T00:40:54;9.83;;;7.30;;
37065;SDS011;22981;43.080;25.550;2023-09-19T00:43:24;10.18;;;7.72;;
37065;SDS011;22981;43.080;25.550;2023-09-19T00:45:54;9.73;;;7.65;;
37065;SDS011;22981;43.080;25.550;2023-09-19T00:48:22;7.95;;;7.08;;
37065;SDS011;22981;43.080;25.550;2023-09-19T00:50:53;9.80;;;7.35;;
37065;SDS011;22981;43.080;25.550;2023-09-19T00:53:21;10.68;;;6.78;;
37065;SDS011;22981;43.080;25.550;2023-09-19T00:55:51;10.78;;;7.08;;
37065;SDS011;22981;43.080;25.550;2023-09-19T00:58:19;8.88;;;7.20;;
37065;SDS011;22981;43.080;25.550;2023-09-19T01:00:48;8.33;;;7.03;;
37065;SDS011;22981;43.080;25.550;2023-09-19T01:03:17;9.48;;;7.35;;
37065;SDS011;22981;43.080;25.550;2023-09-19T01:05:45;8.53;;;6.85;;
37065;SDS011;22981;43.080;25.550;2023-09-19T01:08:12;8.48;;;7.20;;
37065;SDS011;22981;43.080;25.550;2023-09-19T01:10:43;8.90;;;6.47;;
37065;SDS011;22981;43.080;25.550;2023-09-19T01:16:19;8.07;;;6.90;;
37065;SDS011;22981;43.080;25.550;2023-09-19T01:18:52;8.15;;;6.95;;
37065;SDS011;22981;43.080;25.550;2023-09-19T01:21:36;10.68;;;7.45;;
37065;SDS011;22981;43.080;25.550;2023-09-19T01:29:52;10.45;;;8.05;;
37065;SDS011;22981;43.080;25.550;2023-09-19T01:32:22;12.45;;;8.38;;
37065;SDS011;22981;43.080;25.550;2023-09-19T01:34:54;9.48;;;7.53;;
37065;SDS011;22981;43.080;25.550;2023-09-19T01:37:23;12.25;;;8.88;;
37065;SDS011;22981;43.080;25.550;2023-09-19T01:39:52;9.25;;;7.70;;
37065;SDS011;22981;43.080;25.550;2023-09-19T01:47:53;7.92;;;5.85;;
37065;SDS011;22981;43.080;25.550;2023-09-19T01:50:32;12.95;;;8.20;;
37065;SDS011;22981;43.080;25.550;2023-09-19T01:53:19;9.80;;;7.60;;
37065;SDS011;22981;43.080;25.550;2023-09-19T01:55:53;9.98;;;7.47;;
37065;SDS011;22981;43.080;25.550;2023-09-19T01:58:29;10.15;;;7.90;;
37065;SDS011;22981;43.080;25.550;2023-09-19T02:03:33;9.78;;;6.95;;
37065;SDS011;22981;43.080;25.550;2023-09-19T02:06:02;8.78;;;6.62;;
37065;SDS011;22981;43.080;25.550;2023-09-19T02:08:31;9.58;;;7.00;;
37065;SDS011;22981;43.080;25.550;2023-09-19T02:10:59;12.43;;;6.95;;
37065;SDS011;22981;43.080;25.550;2023-09-19T02:13:27;10.03;;;7.42;;
37065;SDS011;22981;43.080;25.550;2023-09-19T02:15:54;9.00;;;7.33;;
37065;SDS011;22981;43.080;25.550;2023-09-19T02:18:22;10.58;;;7.60;;
37065;SDS011;22981;43.080;25.550;2023-09-19T02:20:49;9.58;;;7.40;;
37065;SDS011;22981;43.080;25.550;2023-09-19T02:23:18;9.38;;;7.45;;
37065;SDS011;22981;43.080;25.550;2023-09-19T02:25:53;12.78;;;7.20;;
37065;SDS011;22981;43.080;25.550;2023-09-19T02:28:22;9.78;;;7.28;;
37065;SDS011;22981;43.080;25.550;2023-09-19T02:30:50;8.08;;;7.20;;
37065;SDS011;22981;43.080;25.550;2023-09-19T02:33:17;10.63;;;7.80;;
37065;SDS011;22981;43.080;25.550;2023-09-19T02:35:45;10.03;;;7.70;;
37065;SDS011;22981;43.080;25.550;2023-09-19T02:38:12;11.00;;;7.15;;
37065;SDS011;22981;43.080;25.550;2023-09-19T02:40:42;9.23;;;7.30;;
37065;SDS011;22981;43.080;25.550;2023-09-19T02:43:09;11.38;;;7.55;;
37065;SDS011;22981;43.080;25.550;2023-09-19T02:45:37;7.62;;;6.60;;
37065;SDS011;22981;43.080;25.550;2023-09-19T02:48:05;7.90;;;6.47;;
37065;SDS011;22981;43.080;25.550;2023-09-19T02:50:32;8.10;;;6.80;;
37065;SDS011;22981;43.080;25.550;2023-09-19T02:53:00;7.30;;;6.55;;
37065;SDS011;22981;43.080;25.550;2023-09-19T02:55:29;6.83;;;5.97;;
37065;SDS011;22981;43.080;25.550;2023-09-19T02:57:57;7.90;;;7.10;;
37065;SDS011;22981;43.080;25.550;2023-09-19T03:00:26;8.88;;;7.10;;
37065;SDS011;22981;43.080;25.550;2023-09-19T03:02:54;8.45;;;6.45;;
37065;SDS011;22981;43.080;25.550;2023-09-19T03:05:23;7.72;;;6.92;;
37065;SDS011;22981;43.080;25.550;2023-09-19T03:07:52;8.33;;;6.80;;
37065;SDS011;22981;43.080;25.550;2023-09-19T03:10:21;8.90;;;7.47;;
37065;SDS011;22981;43.080;25.550;2023-09-19T03:12:50;9.33;;;7.78;;
37065;SDS011;22981;43.080;25.550;2023-09-19T03:15:18;10.95;;;7.95;;
37065;SDS011;22981;43.080;25.550;2023-09-19T03:17:47;10.98;;;8.25;;
37065;SDS011;22981;43.080;25.550;2023-09-19T03:20:15;11.35;;;8.43;;
37065;SDS011;22981;43.080;25.550;2023-09-19T03:22:46;8.35;;;7.55;;
37065;SDS011;22981;43.080;25.550;2023-09-19T03:25:14;11.08;;;7.10;;
37065;SDS011;22981;43.080;25.550;2023-09-19T03:27:42;10.93;;;7.25;;
37065;SDS011;22981;43.080;25.550;2023-09-19T03:30:13;9.48;;;7.62;;
37065;SDS011;22981;43.080;25.550;2023-09-19T03:32:45;9.63;;;6.97;;
37065;SDS011;22981;43.080;25.550;2023-09-19T03:35:15;8.80;;;6.90;;
37065;SDS011;22981;43.080;25.550;2023-09-19T03:37:43;8.45;;;6.80;;
37065;SDS011;22981;43.080;25.550;2023-09-19T03:40:11;8.98;;;8.05;;
37065;SDS011;22981;43.080;25.550;2023-09-19T03:42:41;10.93;;;8.23;;
37065;SDS011;22981;43.080;25.550;2023-09-19T03:45:09;8.23;;;7.35;;
37065;SDS011;22981;43.080;25.550;2023-09-19T03:47:38;10.45;;;7.47;;
37065;SDS011;22981;43.080;25.550;2023-09-19T03:50:07;10.53;;;7.12;;
37065;SDS011;22981;43.080;25.550;2023-09-19T03:52:36;9.20;;;7.50;;
37065;SDS011;22981;43.080;25.550;2023-09-19T03:55:05;9.83;;;7.72;;
37065;SDS011;22981;43.080;25.550;2023-09-19T03:57:36;9.65;;;7.35;;
37065;SDS011;22981;43.080;25.550;2023-09-19T04:00:07;8.93;;;7.20;;
37065;SDS011;22981;43.080;25.550;2023-09-19T04:02:39;8.25;;;7.33;;
37065;SDS011;22981;43.080;25.550;2023-09-19T04:05:12;10.80;;;7.42;;
37065;SDS011;22981;43.080;25.550;2023-09-19T04:07:46;11.97;;;8.03;;
37065;SDS011;22981;43.080;25.550;2023-09-19T04:10:19;8.25;;;7.05;;
37065;SDS011;22981;43.080;25.550;2023-09-19T04:53:06;10.45;;;6.65;;
37065;SDS011;22981;43.080;25.550;2023-09-19T04:55:34;10.32;;;6.85;;
37065;SDS011;22981;43.080;25.550;2023-09-19T04:58:01;7.05;;;6.15;;
37065;SDS011;22981;43.080;25.550;2023-09-19T05:00:29;7.45;;;6.58;;
37065;SDS011;22981;43.080;25.550;2023-09-19T05:02:58;8.23;;;6.35;;
37065;SDS011;22981;43.080;25.550;2023-09-19T05:05:26;13.93;;;9.30;;
37065;SDS011;22981;43.080;25.550;2023-09-19T05:07:58;9.95;;;8.30;;
37065;SDS011;22981;43.080;25.550;2023-09-19T05:30:47;7.80;;;7.03;;
37065;SDS011;22981;43.080;25.550;2023-09-19T05:33:15;11.53;;;7.62;;
37065;SDS011;22981;43.080;25.550;2023-09-19T05:35:44;8.15;;;7.28;;
37065;SDS011;22981;43.080;25.550;2023-09-19T05:38:12;7.85;;;6.87;;
37065;SDS011;22981;43.080;25.550;2023-09-19T05:40:42;8.00;;;7.20;;
37065;SDS011;22981;43.080;25.550;2023-09-19T05:43:11;8.45;;;7.00;;
37065;SDS011;22981;43.080;25.550;2023-09-19T05:45:40;7.70;;;6.83;;
37065;SDS011;22981;43.080;25.550;2023-09-19T05:48:08;9.40;;;6.83;;
37065;SDS011;22981;43.080;25.550;2023-09-19T05:50:39;8.05;;;7.25;;
37065;SDS011;22981;43.080;25.550;2023-09-19T05:53:06;8.80;;;7.45;;
37065;SDS011;22981;43.080;25.550;2023-09-19T05:55:36;10.40;;;9.28;;
37065;SDS011;22981;43.080;25.550;2023-09-19T05:58:04;14.68;;;13.20;;
37065;SDS011;22981;43.080;25.550;2023-09-19T06:00:32;17.15;;;13.75;;
37065;SDS011;22981;43.080;25.550;2023-09-19T06:03:00;17.57;;;13.10;;
37065;SDS011;22981;43.080;25.550;2023-09-19T06:05:28;16.25;;;12.03;;
37065;SDS011;22981;43.080;25.550;2023-09-19T06:07:57;17.12;;;11.48;;
37065;SDS011;22981;43.080;25.550;2023-09-19T06:10:26;13.05;;;10.82;;
37065;SDS011;22981;43.080;25.550;2023-09-19T06:12:54;13.93;;;10.03;;
37065;SDS011;22981;43.080;25.550;2023-09-19T06:15:23;15.48;;;10.55;;
37065;SDS011;22981;43.080;25.550;2023-09-19T06:17:52;13.48;;;10.63;;
37065;SDS011;22981;43.080;25.550;2023-09-19T06:20:21;11.93;;;9.10;;
37065;SDS011;22981;43.080;25.550;2023-09-19T06:22:49;17.50;;;9.65;;
37065;SDS011;22981;43.080;25.550;2023-09-19T06:25:17;13.88;;;10.10;;
37065;SDS011;22981;43.080;25.550;2023-09-19T06:27:45;15.80;;;9.23;;
37065;SDS011;22981;43.080;25.550;2023-09-19T06:30:14;13.72;;;8.68;;
37065;SDS011;22981;43.080;25.550;2023-09-19T06:32:43;14.10;;;9.35;;
37065;SDS011;22981;43.080;25.550;2023-09-19T06:35:11;11.10;;;8.40;;
37065;SDS011;22981;43.080;25.550;2023-09-19T06:37:40;10.98;;;7.92;;
37065;SDS011;22981;43.080;25.550;2023-09-19T06:42:43;16.48;;;8.73;;
37065;SDS011;22981;43.080;25.550;2023-09-19T06:45:13;12.17;;;8.13;;
37065;SDS011;22981;43.080;25.550;2023-09-19T06:47:42;11.55;;;8.65;;
37065;SDS011;22981;43.080;25.550;2023-09-19T06:50:11;10.63;;;8.08;;
37065;SDS011;22981;43.080;25.550;2023-09-19T06:52:40;9.33;;;8.33;;
37065;SDS011;22981;43.080;25.550;2023-09-19T06:55:08;9.03;;;7.70;;
37065;SDS011;22981;43.080;25.550;2023-09-19T06:57:37;10.40;;;7.80;;
37065;SDS011;22981;43.080;25.550;2023-09-19T07:00:06;10.78;;;7.78;;
37065;SDS011;22981;43.080;25.550;2023-09-19T07:02:36;11.97;;;7.83;;
37065;SDS011;22981;43.080;25.550;2023-09-19T07:05:04;9.20;;;7.95;;
37065;SDS011;22981;43.080;25.550;2023-09-19T07:07:33;14.03;;;7.62;;
37065;SDS011;22981;43.080;25.550;2023-09-19T07:10:03;9.48;;;7.12;;
37065;SDS011;22981;43.080;25.550;2023-09-19T07:12:31;9.80;;;6.80;;
37065;SDS011;22981;43.080;25.550;2023-09-19T07:14:59;8.20;;;6.40;;
37065;SDS011;22981;43.080;25.550;2023-09-19T07:17:27;6.85;;;5.28;;
37065;SDS011;22981;43.080;25.550;2023-09-19T07:19:55;6.60;;;4.83;;
37065;SDS011;22981;43.080;25.550;2023-09-19T07:22:25;6.30;;;4.47;;
37065;SDS011;22981;43.080;25.550;2023-09-19T07:24:54;4.72;;;3.80;;
37065;SDS011;22981;43.080;25.550;2023-09-19T07:27:21;5.22;;;4.12;;
37065;SDS011;22981;43.080;25.550;2023-09-19T07:29:49;5.42;;;4.12;;
37065;SDS011;22981;43.080;25.550;2023-09-19T07:32:17;4.12;;;3.72;;
37065;SDS011;22981;43.080;25.550;2023-09-19T07:34:45;5.87;;;4.05;;
37065;SDS011;22981;43.080;25.550;2023-09-19T07:37:13;5.92;;;3.90;;
37065;SDS011;22981;43.080;25.550;2023-09-19T07:39:41;5.20;;;3.90;;
37065;SDS011;22981;43.080;25.550;2023-09-19T07:42:10;5.72;;;3.80;;
37065;SDS011;22981;43.080;25.550;2023-09-19T07:44:39;5.28;;;3.40;;
37065;SDS011;22981;43.080;25.550;2023-09-19T07:47:07;4.35;;;3.55;;
37065;SDS011;22981;43.080;25.550;2023-09-19T07:49:35;5.85;;;3.75;;
37065;SDS011;22981;43.080;25.550;2023-09-19T07:52:02;4.72;;;3.50;;
37065;SDS011;22981;43.080;25.550;2023-09-19T07:54:30;7.10;;;3.62;;
37065;SDS011;22981;43.080;25.550;2023-09-19T07:57:00;5.05;;;3.45;;
37065;SDS011;22981;43.080;25.550;2023-09-19T07:59:28;4.40;;;3.55;;
37065;SDS011;22981;43.080;25.550;2023-09-19T08:01:55;4.85;;;3.47;;
37065;SDS011;22981;43.080;25.550;2023-09-19T08:04:23;6.95;;;3.60;;
37065;SDS011;22981;43.080;25.550;2023-09-19T08:06:52;4.50;;;3.27;;
37065;SDS011;22981;43.080;25.550;2023-09-19T08:09:21;3.95;;;3.25;;
37065;SDS011;22981;43.080;25.550;2023-09-19T08:11:49;4.45;;;3.37;;
37065;SDS011;22981;43.080;25.550;2023-09-19T08:14:16;4.10;;;3.05;;
37065;SDS011;22981;43.080;25.550;2023-09-19T08:16:44;5.65;;;3.58;;
37065;SDS011;22981;43.080;25.550;2023-09-19T08:19:12;4.83;;;3.20;;
37065;SDS011;22981;43.080;25.550;2023-09-19T08:21:40;7.00;;;5.12;;
37065;SDS011;22981;43.080;25.550;2023-09-19T08:24:09;4.22;;;3.15;;
37065;SDS011;22981;43.080;25.550;2023-09-19T08:26:37;3.33;;;3.02;;
37065;SDS011;22981;43.080;25.550;2023-09-19T08:29:04;5.78;;;3.10;;
37065;SDS011;22981;43.080;25.550;2023-09-19T08:31:33;6.37;;;4.03;;
37065;SDS011;22981;43.080;25.550;2023-09-19T08:34:01;3.75;;;3.25;;
37065;SDS011;22981;43.080;25.550;2023-09-19T08:36:36;3.92;;;2.95;;
37065;SDS011;22981;43.080;25.550;2023-09-19T08:39:07;4.05;;;2.77;;
37065;SDS011;22981;43.080;25.550;2023-09-19T08:41:35;5.37;;;3.00;;
37065;SDS011;22981;43.080;25.550;2023-09-19T08:44:02;3.15;;;2.77;;
37065;SDS011;22981;43.080;25.550;2023-09-19T08:46:35;4.67;;;3.17;;
37065;SDS011;22981;43.080;25.550;2023-09-19T08:49:05;6.87;;;2.98;;
37065;SDS011;22981;43.080;25.550;2023-09-19T08:51:58;5.03;;;3.22;;
37065;SDS011;22981;43.080;25.550;2023-09-19T08:54:38;3.60;;;2.90;;
37065;SDS011;22981;43.080;25.550;2023-09-19T08:57:09;5.22;;;3.22;;
37065;SDS011;22981;43.080;25.550;2023-09-19T08:59:39;4.20;;;3.02;;
37065;SDS011;22981;43.080;25.550;2023-09-19T09:02:11;4.12;;;3.02;;
37065;SDS011;22981;43.080;25.550;2023-09-19T09:04:40;3.40;;;3.05;;
37065;SDS011;22981;43.080;25.550;2023-09-19T09:07:10;4.45;;;3.10;;
37065;SDS011;22981;43.080;25.550;2023-09-19T09:09:39;4.45;;;3.12;;
37065;SDS011;22981;43.080;25.550;2023-09-19T09:12:12;5.17;;;2.90;;
37065;SDS011;22981;43.080;25.550;2023-09-19T09:14:44;4.17;;;3.05;;
37065;SDS011;22981;43.080;25.550;2023-09-19T09:17:14;5.47;;;2.90;;
37065;SDS011;22981;43.080;25.550;2023-09-19T09:19:44;7.97;;;3.52;;
37065;SDS011;22981;43.080;25.550;2023-09-19T09:22:11;5.80;;;3.08;;
37065;SDS011;22981;43.080;25.550;2023-09-19T09:24:52;3.33;;;3.02;;
37065;SDS011;22981;43.080;25.550;2023-09-19T09:27:29;3.60;;;2.58;;
37065;SDS011;22981;43.080;25.550;2023-09-19T09:29:59;3.72;;;2.90;;
37065;SDS011;22981;43.080;25.550;2023-09-19T09:32:27;5.78;;;2.87;;
37065;SDS011;22981;43.080;25.550;2023-09-19T09:35:00;5.10;;;3.00;;
37065;SDS011;22981;43.080;25.550;2023-09-19T09:37:30;3.75;;;2.83;;
37065;SDS011;22981;43.080;25.550;2023-09-19T09:39:58;3.50;;;2.62;;
37065;SDS011;22981;43.080;25.550;2023-09-19T09:42:44;3.22;;;2.62;;
37065;SDS011;22981;43.080;25.550;2023-09-19T09:45:20;6.42;;;2.77;;
37065;SDS011;22981;43.080;25.550;2023-09-19T09:47:56;3.05;;;2.50;;
37065;SDS011;22981;43.080;25.550;2023-09-19T09:50:31;6.15;;;2.80;;
37065;SDS011;22981;43.080;25.550;2023-09-19T09:52:58;4.70;;;2.65;;
37065;SDS011;22981;43.080;25.550;2023-09-19T09:55:28;3.20;;;2.75;;
37065;SDS011;22981;43.080;25.550;2023-09-19T09:58:15;3.55;;;2.80;;
37065;SDS011;22981;43.080;25.550;2023-09-19T10:00:52;3.00;;;2.60;;
37065;SDS011;22981;43.080;25.550;2023-09-19T10:03:33;3.33;;;2.58;;
37065;SDS011;22981;43.080;25.550;2023-09-19T10:06:04;3.45;;;2.60;;
37065;SDS011;22981;43.080;25.550;2023-09-19T10:08:34;3.02;;;2.58;;
37065;SDS011;22981;43.080;25.550;2023-09-19T10:11:14;4.55;;;2.67;;
37065;SDS011;22981;43.080;25.550;2023-09-19T10:13:34;3.67;;;2.62;;
37065;SDS011;22981;43.080;25.550;2023-09-19T10:16:06;6.55;;;2.72;;
37065;SDS011;22981;43.080;25.550;2023-09-19T10:18:36;3.30;;;2.80;;
37065;SDS011;22981;43.080;25.550;2023-09-19T10:21:06;3.35;;;2.47;;
37065;SDS011;22981;43.080;25.550;2023-09-19T10:23:35;4.62;;;2.60;;
37065;SDS011;22981;43.080;25.550;2023-09-19T10:26:04;3.77;;;2.65;;
37065;SDS011;22981;43.080;25.550;2023-09-19T10:28:34;3.00;;;2.30;;
37065;SDS011;22981;43.080;25.550;2023-09-19T10:31:04;3.83;;;2.62;;
37065;SDS011;22981;43.080;25.550;2023-09-19T10:33:35;4.15;;;2.90;;
37065;SDS011;22981;43.080;25.550;2023-09-19T10:36:04;5.50;;;2.87;;
37065;SDS011;22981;43.080;25.550;2023-09-19T10:38:34;3.15;;;2.50;;
37065;SDS011;22981;43.080;25.550;2023-09-19T10:41:05;4.80;;;2.53;;
37065;SDS011;22981;43.080;25.550;2023-09-19T10:43:34;3.35;;;2.83;;
37065;SDS011;22981;43.080;25.550;2023-09-19T10:46:07;3.85;;;2.58;;
37065;SDS011;22981;43.080;25.550;2023-09-19T10:48:38;4.22;;;2.60;;
37065;SDS011;22981;43.080;25.550;2023-09-19T10:51:19;2.85;;;2.55;;
37065;SDS011;22981;43.080;25.550;2023-09-19T10:53:59;4.33;;;2.27;;
37065;SDS011;22981;43.080;25.550;2023-09-19T10:56:30;5.03;;;2.67;;
37065;SDS011;22981;43.080;25.550;2023-09-19T10:59:06;4.45;;;2.60;;
37065;SDS011;22981;43.080;25.550;2023-09-19T11:01:48;5.35;;;2.90;;
37065;SDS011;22981;43.080;25.550;2023-09-19T11:04:24;3.05;;;2.75;;
37065;SDS011;22981;43.080;25.550;2023-09-19T11:07:02;3.10;;;2.45;;
37065;SDS011;22981;43.080;25.550;2023-09-19T11:09:43;3.15;;;2.40;;
37065;SDS011;22981;43.080;25.550;2023-09-19T11:15:06;3.12;;;2.50;;
37065;SDS011;22981;43.080;25.550;2023-09-19T11:17:37;3.87;;;2.52;;
37065;SDS011;22981;43.080;25.550;2023-09-19T11:30:38;3.62;;;2.80;;
37065;SDS011;22981;43.080;25.550;2023-09-19T11:43:53;2.90;;;2.42;;
37065;SDS011;22981;43.080;25.550;2023-09-19T11:46:24;2.80;;;2.45;;
37065;SDS011;22981;43.080;25.550;2023-09-19T11:48:53;2.98;;;2.58;;
37065;SDS011;22981;43.080;25.550;2023-09-19T11:51:22;3.33;;;2.42;;
37065;SDS011;22981;43.080;25.550;2023-09-19T11:53:56;4.33;;;2.37;;
37065;SDS011;22981;43.080;25.550;2023-09-19T11:56:28;7.08;;;2.80;;
37065;SDS011;22981;43.080;25.550;2023-09-19T11:58:57;9.38;;;2.52;;
37065;SDS011;22981;43.080;25.550;2023-09-19T12:01:29;3.05;;;2.52;;
37065;SDS011;22981;43.080;25.550;2023-09-19T12:04:01;4.65;;;2.70;;
37065;SDS011;22981;43.080;25.550;2023-09-19T12:06:30;2.67;;;2.47;;
37065;SDS011;22981;43.080;25.550;2023-09-19T12:09:03;5.25;;;3.02;;
37065;SDS011;22981;43.080;25.550;2023-09-19T12:11:32;2.80;;;2.60;;
37065;SDS011;22981;43.080;25.550;2023-09-19T12:14:01;3.95;;;2.70;;
37065;SDS011;22981;43.080;25.550;2023-09-19T12:16:29;2.85;;;2.45;;
37065;SDS011;22981;43.080;25.550;2023-09-19T12:18:59;2.98;;;2.60;;
37065;SDS011;22981;43.080;25.550;2023-09-19T12:21:29;3.75;;;2.95;;
37065;SDS011;22981;43.080;25.550;2023-09-19T12:26:37;5.75;;;2.62;;
37065;SDS011;22981;43.080;25.550;2023-09-19T12:29:20;3.98;;;2.52;;
37065;SDS011;22981;43.080;25.550;2023-09-19T12:31:52;3.30;;;2.67;;
37065;SDS011;22981;43.080;25.550;2023-09-19T12:34:25;3.83;;;2.87;;
37065;SDS011;22981;43.080;25.550;2023-09-19T12:37:14;5.90;;;2.45;;
37065;SDS011;22981;43.080;25.550;2023-09-19T12:39:45;3.42;;;2.60;;
37065;SDS011;22981;43.080;25.550;2023-09-19T12:44:48;2.75;;;2.42;;
37065;SDS011;22981;43.080;25.550;2023-09-19T12:47:19;3.08;;;2.77;;
37065;SDS011;22981;43.080;25.550;2023-09-19T12:50:07;4.60;;;2.45;;
37065;SDS011;22981;43.080;25.550;2023-09-19T12:52:46;3.73;;;2.80;;
37065;SDS011;22981;43.080;25.550;2023-09-19T12:55:20;4.17;;;2.60;;
37065;SDS011;22981;43.080;25.550;2023-09-19T12:57:59;4.45;;;2.87;;
37065;SDS011;22981;43.080;25.550;2023-09-19T13:00:35;3.55;;;2.58;;
37065;SDS011;22981;43.080;25.550;2023-09-19T13:05:54;6.30;;;2.87;;
37065;SDS011;22981;43.080;25.550;2023-09-19T13:08:34;2.90;;;2.37;;
37065;SDS011;22981;43.080;25.550;2023-09-19T13:11:09;5.05;;;2.60;;
37065;SDS011;22981;43.080;25.550;2023-09-19T13:13:45;4.85;;;3.05;;
37065;SDS011;22981;43.080;25.550;2023-09-19T13:16:17;3.10;;;2.80;;
37065;SDS011;22981;43.080;25.550;2023-09-19T13:18:50;5.10;;;2.80;;
37065;SDS011;22981;43.080;25.550;2023-09-19T13:21:28;3.02;;;2.62;;
37065;SDS011;22981;43.080;25.550;2023-09-19T13:24:24;4.05;;;3.05;;
37065;SDS011;22981;43.080;25.550;2023-09-19T13:26:53;3.55;;;2.40;;
37065;SDS011;22981;43.080;25.550;2023-09-19T13:29:21;2.90;;;2.50;;
37065;SDS011;22981;43.080;25.550;2023-09-19T13:31:50;6.65;;;3.05;;
37065;SDS011;22981;43.080;25.550;2023-09-19T13:34:22;3.00;;;2.70;;
37065;SDS011;22981;43.080;25.550;2023-09-19T13:36:58;3.95;;;2.80;;
37065;SDS011;22981;43.080;25.550;2023-09-19T13:39:30;5.47;;;2.65;;
37065;SDS011;22981;43.080;25.550;2023-09-19T13:41:57;3.05;;;2.52;;
37065;SDS011;22981;43.080;25.550;2023-09-19T13:44:27;2.87;;;2.55;;
37065;SDS011;22981;43.080;25.550;2023-09-19T13:46:58;3.27;;;2.60;;
37065;SDS011;22981;43.080;25.550;2023-09-19T13:49:28;4.90;;;2.67;;
37065;SDS011;22981;43.080;25.550;2023-09-19T13:51:57;6.75;;;2.83;;
37065;SDS011;22981;43.080;25.550;2023-09-19T13:54:27;6.05;;;2.55;;
37065;SDS011;22981;43.080;25.550;2023-09-19T13:56:54;4.60;;;2.50;;
37065;SDS011;22981;43.080;25.550;2023-09-19T13:59:22;3.45;;;2.67;;
37065;SDS011;22981;43.080;25.550;2023-09-19T14:01:50;2.77;;;2.52;;
37065;SDS011;22981;43.080;25.550;2023-09-19T14:04:19;3.65;;;2.50;;
37065;SDS011;22981;43.080;25.550;2023-09-19T14:06:47;3.80;;;2.70;;
37065;SDS011;22981;43.080;25.550;2023-09-19T14:09:15;3.00;;;2.50;;
37065;SDS011;22981;43.080;25.550;2023-09-19T14:11:44;2.72;;;2.52;;
37065;SDS011;22981;43.080;25.550;2023-09-19T14:14:13;4.58;;;2.70;;
37065;SDS011;22981;43.080;25.550;2023-09-19T14:16:41;2.95;;;2.37;;
37065;SDS011;22981;43.080;25.550;2023-09-19T14:19:08;4.25;;;2.87;;
37065;SDS011;22981;43.080;25.550;2023-09-19T14:21:36;3.67;;;2.90;;
37065;SDS011;22981;43.080;25.550;2023-09-19T14:24:04;4.20;;;2.60;;
37065;SDS011;22981;43.080;25.550;2023-09-19T14:26:35;2.72;;;2.50;;
37065;SDS011;22981;43.080;25.550;2023-09-19T14:29:03;3.02;;;2.70;;
37065;SDS011;22981;43.080;25.550;2023-09-19T14:31:33;6.12;;;3.08;;
37065;SDS011;22981;43.080;25.550;2023-09-19T14:34:03;7.80;;;2.98;;
37065;SDS011;22981;43.080;25.550;2023-09-19T14:36:31;3.60;;;2.83;;
37065;SDS011;22981;43.080;25.550;2023-09-19T14:39:00;3.72;;;2.65;;
37065;SDS011;22981;43.080;25.550;2023-09-19T14:41:28;3.67;;;2.77;;
37065;SDS011;22981;43.080;25.550;2023-09-19T14:43:56;4.17;;;2.70;;
37065;SDS011;22981;43.080;25.550;2023-09-19T14:46:24;3.65;;;2.80;;
37065;SDS011;22981;43.080;25.550;2023-09-19T14:48:52;6.08;;;2.70;;
37065;SDS011;22981;43.080;25.550;2023-09-19T14:51:20;3.92;;;2.98;;
37065;SDS011;22981;43.080;25.550;2023-09-19T14:53:48;4.17;;;2.70;;
37065;SDS011;22981;43.080;25.550;2023-09-19T14:56:16;3.67;;;2.75;;
37065;SDS011;22981;43.080;25.550;2023-09-19T14:58:45;3.30;;;3.00;;
37065;SDS011;22981;43.080;25.550;2023-09-19T15:01:13;5.60;;;3.00;;
37065;SDS011;22981;43.080;25.550;2023-09-19T15:03:41;3.17;;;2.42;;
37065;SDS011;22981;43.080;25.550;2023-09-19T15:06:10;8.80;;;3.35;;
37065;SDS011;22981;43.080;25.550;2023-09-19T15:08:54;5.58;;;3.05;;
37065;SDS011;22981;43.080;25.550;2023-09-19T15:16:43;9.70;;;6.12;;
37065;SDS011;22981;43.080;25.550;2023-09-19T15:19:11;7.67;;;5.25;;
37065;SDS011;22981;43.080;25.550;2023-09-19T15:21:38;8.38;;;5.03;;
37065;SDS011;22981;43.080;25.550;2023-09-19T15:24:06;8.00;;;4.15;;
37065;SDS011;22981;43.080;25.550;2023-09-19T15:26:37;6.25;;;3.50;;
37065;SDS011;22981;43.080;25.550;2023-09-19T15:29:05;5.50;;;2.98;;
37065;SDS011;22981;43.080;25.550;2023-09-19T15:31:33;6.08;;;3.10;;
37065;SDS011;22981;43.080;25.550;2023-09-19T15:34:05;5.80;;;3.92;;
37065;SDS011;22981;43.080;25.550;2023-09-19T15:36:33;5.33;;;3.55;;
37065;SDS011;22981;43.080;25.550;2023-09-19T15:39:01;5.45;;;2.75;;
37065;SDS011;22981;43.080;25.550;2023-09-19T15:41:34;4.20;;;3.08;;
37065;SDS011;22981;43.080;25.550;2023-09-19T15:44:04;4.87;;;3.08;;
37065;SDS011;22981;43.080;25.550;2023-09-19T15:46:33;5.10;;;2.50;;
37065;SDS011;22981;43.080;25.550;2023-09-19T15:49:01;9.15;;;3.12;;
37065;SDS011;22981;43.080;25.550;2023-09-19T15:51:29;4.53;;;3.27;;
37065;SDS011;22981;43.080;25.550;2023-09-19T15:53:57;3.52;;;2.55;;
37065;SDS011;22981;43.080;25.550;2023-09-19T15:56:26;2.83;;;2.50;;
37065;SDS011;22981;43.080;25.550;2023-09-19T15:58:54;5.20;;;2.60;;
37065;SDS011;22981;43.080;25.550;2023-09-19T16:01:22;4.05;;;2.67;;
37065;SDS011;22981;43.080;25.550;2023-09-19T16:03:51;8.70;;;2.83;;
37065;SDS011;22981;43.080;25.550;2023-09-19T16:06:22;4.15;;;2.70;;
37065;SDS011;22981;43.080;25.550;2023-09-19T16:08:52;4.25;;;2.58;;
37065;SDS011;22981;43.080;25.550;2023-09-19T16:11:21;4.22;;;2.50;;
37065;SDS011;22981;43.080;25.550;2023-09-19T16:13:50;3.85;;;2.75;;
37065;SDS011;22981;43.080;25.550;2023-09-19T16:16:19;6.05;;;2.70;;
37065;SDS011;22981;43.080;25.550;2023-09-19T16:18:49;4.72;;;2.62;;
37065;SDS011;22981;43.080;25.550;2023-09-19T16:21:19;4.78;;;2.65;;
37065;SDS011;22981;43.080;25.550;2023-09-19T16:23:47;3.60;;;2.60;;
37065;SDS011;22981;43.080;25.550;2023-09-19T16:26:17;7.42;;;2.90;;
37065;SDS011;22981;43.080;25.550;2023-09-19T16:28:46;4.80;;;3.02;;
37065;SDS011;22981;43.080;25.550;2023-09-19T16:31:15;5.65;;;2.65;;
37065;SDS011;22981;43.080;25.550;2023-09-19T16:33:44;7.60;;;3.00;;
37065;SDS011;22981;43.080;25.550;2023-09-19T16:36:17;3.87;;;2.40;;
37065;SDS011;22981;43.080;25.550;2023-09-19T16:38:43;7.75;;;3.20;;
37065;SDS011;22981;43.080;25.550;2023-09-19T16:41:14;4.40;;;2.80;;
37065;SDS011;22981;43.080;25.550;2023-09-19T16:43:44;4.30;;;3.08;;
37065;SDS011;22981;43.080;25.550;2023-09-19T16:46:12;10.23;;;3.45;;
37065;SDS011;22981;43.080;25.550;2023-09-19T16:48:43;7.05;;;3.37;;
37065;SDS011;22981;43.080;25.550;2023-09-19T16:51:12;6.75;;;3.35;;
37065;SDS011;22981;43.080;25.550;2023-09-19T16:53:41;6.05;;;3.58;;
37065;SDS011;22981;43.080;25.550;2023-09-19T16:56:11;8.88;;;3.77;;
37065;SDS011;22981;43.080;25.550;2023-09-19T16:58:42;6.53;;;4.35;;